Time;durP1;ratioP1;P1;durP2;ratioP2;P2;SDS_P1;SDS_P2;PMS_P1;PMS_P2;Temp;Humidity;BMP_temperature;BMP_pressure;BME280_temperature;BME280_humidity;BME280_pressure;Samples;Min_cycle;Max_cycle;Signal;HPM_P1;HPM_P2
2023/07/24 00:02:13;;;;;;;11.90;6.43;;;;;;;24.10;60.23;99491.00;5070333;28;20175;-65
2023/07/24 00:04:38;;;;;;;14.27;7.77;;;;;;;24.09;60.79;99492.22;5053574;28;20735;-66
2023/07/24 00:07:04;;;;;;;12.13;7.13;;;;;;;24.10;60.43;99490.16;5051377;28;20406;-65
2023/07/24 00:09:29;;;;;;;13.20;6.90;;;;;;;24.10;60.33;99495.94;5053418;28;20230;-65
2023/07/24 00:11:55;;;;;;;16.30;7.50;;;;;;;24.10;60.24;99493.03;5050818;28;20299;-65
2023/07/24 00:14:20;;;;;;;12.97;7.60;;;;;;;24.09;60.17;99489.34;5059622;28;20179;-65
2023/07/24 00:16:45;;;;;;;11.00;6.70;;;;;;;24.10;60.42;99493.88;5052652;28;20226;-65
2023/07/24 00:19:11;;;;;;;12.77;7.50;;;;;;;24.09;60.13;99489.34;5040540;28;20192;-65
2023/07/24 00:21:36;;;;;;;17.17;7.70;;;;;;;24.10;59.83;99495.94;5030413;28;20175;-65
2023/07/24 00:24:02;;;;;;;11.97;6.50;;;;;;;24.09;59.98;99489.34;5042229;28;20239;-65
2023/07/24 00:26:27;;;;;;;11.50;7.67;;;;;;;24.09;60.15;99479.88;5049161;28;20258;-65
2023/07/24 00:28:53;;;;;;;11.50;7.10;;;;;;;24.08;59.83;99484.81;5032427;28;20192;-64
2023/07/24 00:31:18;;;;;;;12.07;7.47;;;;;;;24.08;60.30;99479.06;5037093;28;20180;-65
2023/07/24 00:33:43;;;;;;;12.00;7.10;;;;;;;24.08;60.22;99481.94;5037167;28;20187;-65
2023/07/24 00:36:09;;;;;;;11.90;7.70;;;;;;;24.08;60.00;99476.19;5028337;28;20183;-65
2023/07/24 00:38:34;;;;;;;13.20;7.00;;;;;;;24.09;60.17;99482.78;5029930;28;20187;-66
2023/07/24 00:41:00;;;;;;;14.10;8.40;;;;;;;24.08;60.22;99469.59;5030293;28;20189;-65
2023/07/24 00:43:25;;;;;;;14.20;7.33;;;;;;;24.08;60.15;99463.84;5062089;28;20180;-65
2023/07/24 00:45:51;;;;;;;11.77;7.07;;;;;;;24.07;60.08;99465.91;5044105;28;20184;-65
2023/07/24 00:48:16;;;;;;;11.30;6.90;;;;;;;24.08;59.91;99466.72;5019748;28;20172;-65
2023/07/24 00:50:42;;;;;;;11.03;7.27;;;;;;;24.08;59.97;99458.06;5050412;28;20164;-65
2023/07/24 00:53:08;;;;;;;10.60;6.97;;;;;;;24.07;60.29;99465.91;5049154;28;20203;-65
2023/07/24 00:55:33;;;;;;;14.43;8.00;;;;;;;24.07;60.26;99463.00;5046674;28;20917;-66
2023/07/24 00:57:58;;;;;;;11.63;7.20;;;;;;;24.07;60.11;99462.19;5052756;28;20164;-65
2023/07/24 01:00:37;;;;;;;10.23;7.37;;;;;;;24.07;59.81;99463.00;5043179;28;20181;-66
2023/07/24 01:03:02;;;;;;;10.40;6.43;;;;;;;24.07;59.98;99459.31;5025476;28;20254;-65
2023/07/24 01:05:28;;;;;;;13.87;7.20;;;;;;;24.06;60.27;99452.75;5047402;28;20969;-65
2023/07/24 01:07:53;;;;;;;11.73;6.70;;;;;;;24.06;60.15;99458.50;5012690;28;20188;-65
2023/07/24 01:10:19;;;;;;;10.83;7.00;;;;;;;24.05;59.95;99456.88;5029408;28;20172;-65
2023/07/24 01:12:58;;;;;;;13.73;7.20;;;;;;;24.07;60.08;99459.31;5031490;28;20204;-65
2023/07/24 01:15:34;;;;;;;12.87;7.37;;;;;;;24.05;60.13;99462.66;5042928;28;20187;-65
2023/07/24 01:18:01;;;;;;;9.87;6.30;;;;;;;24.05;60.18;99458.94;5046542;28;20466;-65
2023/07/24 01:20:28;;;;;;;13.33;7.60;;;;;;;24.06;59.99;99458.50;4994072;28;20451;-65
2023/07/24 01:23:26;;;;;;;10.00;6.43;;;;;;;24.05;59.85;99459.75;5028338;28;20891;-65
2023/07/24 01:25:53;;;;;;;10.37;6.10;;;;;;;24.05;59.92;99461.81;5003709;28;20891;-65
2023/07/24 01:28:19;;;;;;;9.90;6.00;;;;;;;24.06;60.10;99458.50;5045468;28;20430;-65
2023/07/24 01:30:44;;;;;;;10.93;7.17;;;;;;;24.05;59.96;99458.94;5033406;28;21055;-65
2023/07/24 01:33:10;;;;;;;9.57;6.33;;;;;;;24.04;59.97;99452.34;5012771;28;20864;-65
2023/07/24 01:35:35;;;;;;;9.43;6.23;;;;;;;24.04;59.87;99446.56;5044554;28;20557;-65
2023/07/24 01:38:00;;;;;;;11.10;6.77;;;;;;;24.04;60.18;99431.34;5048502;28;20245;-65
2023/07/24 01:40:26;;;;;;;9.83;6.60;;;;;;;24.03;60.00;99433.41;5029396;28;20171;-65
2023/07/24 01:42:51;;;;;;;11.40;6.60;;;;;;;24.04;60.09;99416.94;5012991;28;20176;-65
2023/07/24 01:45:17;;;;;;;14.27;7.70;;;;;;;24.04;60.10;99417.72;5011675;28;20168;-65
2023/07/24 01:47:42;;;;;;;11.03;6.70;;;;;;;24.05;59.99;99418.56;5038001;28;20179;-65
2023/07/24 01:50:08;;;;;;;11.00;6.43;;;;;;;24.04;60.04;99420.63;5049178;28;20933;-65
2023/07/24 01:52:33;;;;;;;10.57;6.50;;;;;;;24.03;60.12;99419.00;5048507;28;20200;-65
2023/07/24 01:54:59;;;;;;;10.73;7.63;;;;;;;24.04;60.29;99423.50;5047937;28;20191;-65
2023/07/24 01:57:24;;;;;;;10.30;6.83;;;;;;;24.03;60.08;99424.75;5033685;28;20187;-65
2023/07/24 01:59:50;;;;;;;11.20;6.50;;;;;;;24.03;60.00;99415.31;5028113;28;20181;-65
2023/07/24 02:02:15;;;;;;;11.00;6.33;;;;;;;24.03;59.81;99403.78;5037104;28;20180;-66
2023/07/24 02:04:41;;;;;;;11.07;6.53;;;;;;;24.03;59.69;99400.91;5028042;28;20216;-65
2023/07/24 02:07:06;;;;;;;10.33;6.47;;;;;;;24.03;59.96;99398.00;5027924;28;20168;-66
2023/07/24 02:09:32;;;;;;;10.80;6.87;;;;;;;24.02;60.06;99399.25;5046843;28;20179;-65
2023/07/24 02:11:57;;;;;;;11.53;7.30;;;;;;;24.02;59.86;99399.25;5048499;28;20752;-65
2023/07/24 02:14:24;;;;;;;9.77;6.37;;;;;;;24.01;60.05;99392.69;5040651;28;20543;-65
2023/07/24 02:16:49;;;;;;;9.60;6.00;;;;;;;24.01;59.99;99392.69;5027910;28;20255;-65
2023/07/24 02:19:15;;;;;;;11.63;7.03;;;;;;;24.02;60.04;99397.19;5047709;28;20982;-65
2023/07/24 02:21:40;;;;;;;10.73;6.37;;;;;;;24.02;60.24;99402.94;5061937;28;20179;-65
2023/07/24 02:24:06;;;;;;;10.33;6.83;;;;;;;24.02;60.24;99396.34;5066051;28;20167;-65
2023/07/24 02:26:31;;;;;;;10.20;6.00;;;;;;;24.00;60.19;99393.94;5062021;28;20202;-66
2023/07/24 02:28:57;;;;;;;9.07;6.17;;;;;;;24.00;59.87;99393.94;5047376;28;20182;-65
2023/07/24 02:31:22;;;;;;;9.63;6.13;;;;;;;24.00;59.90;99393.94;5063790;28;20239;-65
2023/07/24 02:33:48;;;;;;;11.07;6.30;;;;;;;24.00;59.90;99399.72;5047939;28;20229;-65
2023/07/24 02:36:13;;;;;;;9.13;5.83;;;;;;;24.00;60.25;99387.34;5046719;28;20160;-65
2023/07/24 02:38:39;;;;;;;10.23;6.47;;;;;;;24.00;60.28;99390.22;5047025;28;20662;-65
2023/07/24 02:41:04;;;;;;;11.20;6.97;;;;;;;23.99;60.07;99385.72;5049449;28;20205;-65
2023/07/24 02:43:30;;;;;;;9.07;6.00;;;;;;;23.99;60.10;99380.75;5047827;28;20194;-66
2023/07/24 02:45:55;;;;;;;8.53;6.27;;;;;;;23.99;60.40;99365.53;5048050;28;20179;-65
2023/07/24 02:48:20;;;;;;;9.80;6.50;;;;;;;23.99;60.30;99356.88;5016226;28;20187;-66
2023/07/24 02:50:48;;;;;;;10.80;6.07;;;;;;;23.98;60.12;99356.06;5064286;28;20183;-65
2023/07/24 02:53:13;;;;;;;12.60;6.97;;;;;;;23.99;60.20;99348.25;5061158;28;20542;-65
2023/07/24 02:55:43;;;;;;;8.40;5.83;;;;;;;23.99;60.16;99346.16;5061297;28;20474;-65
2023/07/24 02:58:08;;;;;;;9.70;6.00;;;;;;;23.98;59.66;99347.41;5049855;28;20233;-65
2023/07/24 03:00:33;;;;;;;9.00;6.00;;;;;;;23.99;60.10;99359.78;5053340;28;20422;-65
2023/07/24 03:02:59;;;;;;;9.60;6.17;;;;;;;23.98;60.09;99343.72;5067939;28;20825;-65
2023/07/24 03:05:24;;;;;;;9.33;6.00;;;;;;;23.99;59.94;99339.59;5068125;28;20651;-66
2023/07/24 03:07:50;;;;;;;7.47;5.00;;;;;;;23.98;60.19;99344.53;5065503;28;20577;-65
2023/07/24 03:10:15;;;;;;;10.73;6.00;;;;;;;23.98;60.35;99335.88;5062566;28;20589;-65
2023/07/24 03:12:41;;;;;;;8.50;5.60;;;;;;;23.97;60.31;99345.78;5066511;28;20185;-65
2023/07/24 03:15:07;;;;;;;8.67;5.50;;;;;;;23.97;60.36;99342.91;5052803;28;20183;-66
2023/07/24 03:17:32;;;;;;;9.20;5.80;;;;;;;23.97;60.36;99350.72;5049259;28;20221;-65
2023/07/24 03:19:59;;;;;;;8.60;5.50;;;;;;;23.97;60.37;99342.91;5049907;28;20870;-65
2023/07/24 03:22:24;;;;;;;9.33;6.10;;;;;;;23.97;60.19;99348.66;5049628;28;20172;-65
2023/07/24 03:24:49;;;;;;;8.53;5.63;;;;;;;23.98;60.38;99363.91;5058976;28;20444;-66
2023/07/24 03:27:15;;;;;;;10.57;5.87;;;;;;;23.97;60.33;99362.25;5055834;28;20183;-65
2023/07/24 03:29:40;;;;;;;10.10;6.00;;;;;;;23.97;60.20;99370.91;5061421;28;20171;-65
2023/07/24 03:32:07;;;;;;;10.63;6.00;;;;;;;23.96;60.61;99378.78;5065629;28;20792;-65
2023/07/24 03:34:32;;;;;;;8.43;5.10;;;;;;;23.95;60.35;99368.50;5051693;28;20662;-65
2023/07/24 03:36:58;;;;;;;9.80;5.17;;;;;;;23.97;60.50;99373.78;5051927;28;20414;-65
2023/07/24 03:39:23;;;;;;;9.00;5.77;;;;;;;23.96;60.51;99370.13;5068397;28;20260;-66
2023/07/24 03:41:48;;;;;;;9.13;5.80;;;;;;;23.95;60.58;99371.38;5071628;28;20196;-65
2023/07/24 03:44:14;;;;;;;11.23;5.80;;;;;;;23.95;60.71;99371.38;5064649;28;20232;-66
2023/07/24 03:46:39;;;;;;;11.07;5.97;;;;;;;23.95;60.86;99371.38;5035628;28;20180;-66
2023/07/24 03:49:05;;;;;;;8.17;5.67;;;;;;;23.95;60.67;99365.63;5051730;28;20937;-66
2023/07/24 03:51:30;;;;;;;8.90;5.77;;;;;;;23.96;60.54;99360.63;5052517;28;20599;-65
2023/07/24 03:53:56;;;;;;;9.53;6.20;;;;;;;23.95;60.50;99362.72;5063134;28;20608;-66
2023/07/24 03:56:21;;;;;;;10.47;5.67;;;;;;;23.95;60.56;99356.13;5071493;28;20529;-66
2023/07/24 03:58:46;;;;;;;12.03;5.87;;;;;;;23.94;60.48;99349.53;5071463;28;20171;-64
2023/07/24 04:01:12;;;;;;;8.23;5.57;;;;;;;23.94;60.63;99342.97;5065886;28;20179;-66
2023/07/24 04:03:37;;;;;;;11.10;6.00;;;;;;;23.94;60.71;99342.97;5052417;28;20171;-65
2023/07/24 04:06:03;;;;;;;7.47;5.40;;;;;;;23.95;60.75;99350.38;5067059;28;20203;-65
2023/07/24 04:08:28;;;;;;;10.23;6.30;;;;;;;23.93;60.61;99356.56;5069418;28;20179;-65
2023/07/24 04:10:56;;;;;;;11.00;6.70;;;;;;;23.94;60.89;99349.53;5051325;28;20171;-65
2023/07/24 04:13:21;;;;;;;12.03;6.50;;;;;;;23.94;60.68;99348.75;5066237;28;20215;-65
2023/07/24 04:15:47;;;;;;;9.33;5.57;;;;;;;23.93;60.69;99347.91;5068220;28;20425;-65
2023/07/24 04:18:12;;;;;;;9.73;6.00;;;;;;;23.93;60.78;99339.25;5055608;28;20958;-65
2023/07/24 04:20:38;;;;;;;10.50;6.40;;;;;;;23.93;60.83;99342.16;5048177;28;20171;-66
2023/07/24 04:23:03;;;;;;;7.90;5.80;;;;;;;23.93;60.50;99339.25;5049531;28;20160;-65
2023/07/24 04:25:29;;;;;;;10.03;6.20;;;;;;;23.92;60.70;99337.66;5032150;28;20188;-66
2023/07/24 04:27:54;;;;;;;9.57;6.07;;;;;;;23.92;60.58;99329.00;5047934;28;20172;-65
2023/07/24 04:30:20;;;;;;;8.00;5.37;;;;;;;23.92;60.67;99323.22;5042223;28;20195;-65
2023/07/24 04:32:46;;;;;;;10.20;5.70;;;;;;;23.91;60.88;99321.59;5031811;28;20273;-66
2023/07/24 04:35:11;;;;;;;8.27;5.40;;;;;;;23.91;60.73;99315.84;5030164;28;20216;-66
2023/07/24 04:37:36;;;;;;;9.77;6.30;;;;;;;23.91;60.83;99318.72;5030494;28;20918;-66
2023/07/24 04:40:02;;;;;;;9.00;6.13;;;;;;;23.91;60.81;99315.84;5032774;28;20234;-65
2023/07/24 04:42:28;;;;;;;10.43;6.00;;;;;;;23.91;60.87;99338.09;5030133;28;20212;-65
2023/07/24 04:44:53;;;;;;;10.57;5.83;;;;;;;23.91;60.64;99336.03;5033852;28;20164;-65
2023/07/24 04:47:19;;;;;;;9.10;6.00;;;;;;;23.91;60.57;99332.31;5041452;28;20186;-65
2023/07/24 04:49:44;;;;;;;10.17;6.50;;;;;;;23.91;60.63;99343.84;5029843;28;20184;-65
2023/07/24 04:52:09;;;;;;;10.27;6.40;;;;;;;23.90;60.58;99354.59;5029261;28;20207;-65
2023/07/24 04:54:35;;;;;;;11.33;6.93;;;;;;;23.91;60.60;99353.31;5034334;28;20183;-65
2023/07/24 04:57:00;;;;;;;9.70;6.07;;;;;;;23.90;60.53;99357.47;5038967;28;20173;-65
2023/07/24 04:59:26;;;;;;;9.90;6.33;;;;;;;23.90;60.41;99348.00;5011814;28;20605;-65
2023/07/24 05:01:51;;;;;;;10.53;6.27;;;;;;;23.89;60.63;99341.41;5040067;28;20616;-66
2023/07/24 05:04:17;;;;;;;10.77;6.53;;;;;;;23.88;60.52;99342.63;5048491;28;20196;-65
2023/07/24 05:06:42;;;;;;;13.13;6.70;;;;;;;23.89;60.52;99349.25;5013270;28;20184;-65
2023/07/24 05:09:08;;;;;;;9.50;6.60;;;;;;;23.88;60.42;99365.69;5030515;28;20195;-66
2023/07/24 05:11:33;;;;;;;10.20;5.87;;;;;;;23.87;60.38;99371.88;5027978;28;20167;-65
2023/07/24 05:13:58;;;;;;;11.03;6.87;;;;;;;23.86;60.25;99385.50;5030010;28;20542;-65
2023/07/24 05:16:24;;;;;;;11.03;6.13;;;;;;;23.86;60.11;99393.34;5047215;28;20233;-65
2023/07/24 05:18:49;;;;;;;9.23;6.03;;;;;;;23.85;60.24;99391.72;5027474;28;20553;-65
2023/07/24 05:21:15;;;;;;;12.63;6.70;;;;;;;23.84;60.07;99396.66;5046067;28;20187;-65
2023/07/24 05:23:40;;;;;;;11.10;7.33;;;;;;;23.84;60.14;99385.13;5012596;28;20167;-66
2023/07/24 05:26:06;;;;;;;10.70;6.87;;;;;;;23.84;59.99;99381.44;5030938;28;20198;-66
2023/07/24 05:28:31;;;;;;;9.70;6.70;;;;;;;23.84;60.30;99382.22;5028884;28;20172;-66
2023/07/24 05:31:03;;;;;;;10.90;7.23;;;;;;;23.83;60.15;99374.84;5016896;28;20188;-65
2023/07/24 05:33:29;;;;;;;11.70;7.10;;;;;;;23.83;60.39;99371.97;5045148;28;20203;-65
2023/07/24 05:36:02;;;;;;;10.33;6.67;;;;;;;23.84;60.29;99367.81;5012119;28;20476;-65
2023/07/24 05:38:27;;;;;;;13.63;7.27;;;;;;;23.85;60.47;99375.25;5046698;28;20458;-66
2023/07/24 05:41:00;;;;;;;11.67;6.97;;;;;;;23.85;60.69;99374.41;5030869;28;20513;-66
2023/07/24 05:43:26;;;;;;;12.37;7.33;;;;;;;23.84;60.26;99362.06;5014327;28;20674;-66
2023/07/24 05:45:51;;;;;;;11.07;6.50;;;;;;;23.85;60.59;99374.41;5029400;28;20929;-65
2023/07/24 05:48:17;;;;;;;10.20;6.13;;;;;;;23.84;60.75;99367.81;5039392;28;20426;-65
2023/07/24 05:50:43;;;;;;;11.37;6.37;;;;;;;23.85;60.52;99368.66;5049134;28;20179;-66
2023/07/24 05:53:08;;;;;;;10.37;7.03;;;;;;;23.85;60.55;99366.59;5025098;28;20211;-65
2023/07/24 05:55:33;;;;;;;12.33;7.10;;;;;;;23.84;60.36;99362.06;5022056;28;20175;-65
2023/07/24 05:57:59;;;;;;;9.93;5.90;;;;;;;23.84;60.33;99356.28;5043505;28;20230;-65
2023/07/24 06:00:24;;;;;;;9.33;6.30;;;;;;;23.84;60.32;99356.28;5043722;28;20237;-65
2023/07/24 06:02:50;;;;;;;11.70;7.43;;;;;;;23.83;60.43;99353.88;5046146;28;20168;-65
2023/07/24 06:05:15;;;;;;;11.83;7.13;;;;;;;23.84;60.10;99355.50;5027140;28;20231;-65
2023/07/24 06:07:41;;;;;;;9.57;6.80;;;;;;;23.84;60.29;99369.91;5022838;28;20298;-65
2023/07/24 06:10:07;;;;;;;11.43;7.27;;;;;;;23.84;60.33;99369.91;5046483;28;20175;-66
2023/07/24 06:12:32;;;;;;;9.90;6.53;;;;;;;23.82;60.03;99370.34;5026923;28;20226;-65
2023/07/24 06:14:57;;;;;;;10.90;7.17;;;;;;;23.83;59.80;99371.97;5029298;28;20210;-65
2023/07/24 06:17:23;;;;;;;10.27;6.80;;;;;;;23.82;59.80;99361.69;5034366;28;20224;-66
2023/07/24 06:19:48;;;;;;;12.73;7.50;;;;;;;23.82;60.07;99364.56;5065398;28;20241;-65
2023/07/24 06:22:14;;;;;;;13.80;7.10;;;;;;;23.82;59.71;99370.34;5068291;28;20185;-65
2023/07/24 06:24:39;;;;;;;10.40;7.17;;;;;;;23.83;59.98;99356.75;5065287;28;20175;-65
2023/07/24 06:27:06;;;;;;;11.63;7.17;;;;;;;23.81;59.91;99362.94;5059880;28;20191;-65
2023/07/24 06:29:32;;;;;;;10.63;7.07;;;;;;;23.81;59.87;99365.84;5049968;28;20726;-66
2023/07/24 06:31:57;;;;;;;12.17;7.03;;;;;;;23.82;59.95;99358.81;5063818;28;20472;-68
2023/07/24 06:34:23;;;;;;;12.07;6.87;;;;;;;23.80;59.92;99361.31;5050645;28;20643;-68
2023/07/24 06:36:48;;;;;;;10.70;6.53;;;;;;;23.80;59.85;99364.22;5048576;28;20495;-67
2023/07/24 06:39:14;;;;;;;12.00;7.70;;;;;;;23.81;60.07;99359.25;5034404;28;20190;-68
2023/07/24 06:41:39;;;;;;;11.03;6.87;;;;;;;23.81;60.17;99370.78;5030492;28;20647;-68
2023/07/24 06:44:05;;;;;;;11.40;7.37;;;;;;;23.80;60.13;99375.75;5062784;28;20495;-68
2023/07/24 06:46:30;;;;;;;11.57;7.70;;;;;;;23.80;59.96;99384.38;5050651;28;20308;-68
2023/07/24 06:48:55;;;;;;;9.70;6.13;;;;;;;23.79;59.92;99376.97;5048179;28;20184;-68
2023/07/24 06:51:21;;;;;;;9.30;6.63;;;;;;;23.79;59.97;99382.72;5054655;28;20183;-67
2023/07/24 06:53:46;;;;;;;12.53;6.83;;;;;;;23.79;60.00;99381.94;5056510;28;20288;-67
2023/07/24 06:56:12;;;;;;;10.90;6.90;;;;;;;23.78;60.18;99381.13;5064454;28;20837;-67
2023/07/24 06:58:37;;;;;;;13.63;8.20;;;;;;;23.79;60.25;99381.94;5064859;28;20627;-68
2023/07/24 07:01:06;;;;;;;11.00;7.30;;;;;;;23.78;59.88;99386.09;5034861;28;20604;-67
2023/07/24 07:03:34;;;;;;;13.10;6.83;;;;;;;23.78;59.98;99400.50;5065641;28;20187;-68
2023/07/24 07:06:00;;;;;;;11.90;7.57;;;;;;;23.77;60.46;99408.31;5047709;28;20541;-68
2023/07/24 07:08:25;;;;;;;12.43;8.07;;;;;;;23.78;59.99;99417.78;5037196;28;20430;-67
2023/07/24 07:11:00;;;;;;;13.53;8.90;;;;;;;23.77;60.24;99421.91;5047355;28;20730;-67
2023/07/24 07:13:26;;;;;;;12.47;7.50;;;;;;;23.76;60.28;99421.09;5048282;28;20207;-68
2023/07/24 07:15:51;;;;;;;12.77;8.07;;;;;;;23.77;60.31;99424.78;5063783;28;20440;-67
2023/07/24 07:18:17;;;;;;;12.87;8.20;;;;;;;23.76;60.29;99434.69;5052354;28;20220;-67
2023/07/24 07:20:50;;;;;;;13.47;7.40;;;;;;;23.75;60.30;99433.91;5039876;28;20179;-68
2023/07/24 07:23:15;;;;;;;12.53;7.40;;;;;;;23.75;60.51;99433.91;5047018;28;20179;-67
2023/07/24 07:25:41;;;;;;;12.33;7.47;;;;;;;23.76;60.66;99434.69;5060228;28;20868;-67
2023/07/24 07:28:06;;;;;;;11.10;7.30;;;;;;;23.76;60.49;99426.88;5050834;28;20187;-67
2023/07/24 07:30:31;;;;;;;12.40;7.50;;;;;;;23.76;60.56;99421.09;5048179;28;20187;-68
2023/07/24 07:32:57;;;;;;;11.47;7.53;;;;;;;23.76;60.72;99414.50;5032019;28;20206;-68
2023/07/24 07:35:22;;;;;;;13.37;7.93;;;;;;;23.77;60.54;99439.19;5068248;28;20179;-68
2023/07/24 07:37:48;;;;;;;15.67;8.10;;;;;;;23.76;60.67;99424.00;5049727;28;20253;-68
2023/07/24 07:40:13;;;;;;;11.97;7.80;;;;;;;23.77;60.68;99414.09;5052507;28;20180;-67
2023/07/24 07:42:39;;;;;;;12.63;7.50;;;;;;;23.76;61.02;99406.69;5057770;28;20184;-67
2023/07/24 07:45:05;;;;;;;14.07;8.10;;;;;;;23.76;61.06;99408.75;5066134;28;20186;-66
2023/07/24 07:47:30;;;;;;;12.10;7.73;;;;;;;23.77;60.96;99419.03;5064722;28;20267;-68
2023/07/24 07:49:56;;;;;;;11.73;7.80;;;;;;;23.77;60.44;99419.03;5047489;28;20670;-67
2023/07/24 07:52:22;;;;;;;13.03;7.30;;;;;;;23.77;61.07;99416.13;5047850;28;20577;-68
2023/07/24 07:54:49;;;;;;;13.57;7.97;;;;;;;23.76;60.74;99406.69;5060122;28;20171;-67
2023/07/24 07:57:15;;;;;;;13.53;7.87;;;;;;;23.77;60.96;99408.31;5062804;28;20442;-68
2023/07/24 07:59:41;;;;;;;12.10;7.77;;;;;;;23.78;60.95;99401.28;5062276;28;20460;-68
2023/07/24 08:02:06;;;;;;;13.27;7.73;;;;;;;23.78;60.69;99384.00;5048970;28;20248;-67
2023/07/24 08:04:32;;;;;;;11.13;6.53;;;;;;;23.77;60.94;99362.19;5031295;28;21003;-68
2023/07/24 08:06:57;;;;;;;11.87;7.50;;;;;;;23.77;60.87;99347.78;5056719;28;20190;-68
2023/07/24 08:09:24;;;;;;;10.70;7.17;;;;;;;23.77;60.83;99342.00;5050650;28;20172;-67
2023/07/24 08:11:49;;;;;;;12.80;7.70;;;;;;;23.77;61.04;99330.47;5050412;28;20265;-66
2023/07/24 08:14:15;;;;;;;10.90;7.20;;;;;;;23.77;61.16;99339.13;5039700;28;20440;-68
2023/07/24 08:16:40;;;;;;;12.80;7.50;;;;;;;23.78;61.06;99349.41;5071037;28;20619;-67
2023/07/24 08:19:06;;;;;;;11.90;7.37;;;;;;;23.79;60.86;99365.44;5065549;28;20684;-67
2023/07/24 08:21:31;;;;;;;10.47;6.77;;;;;;;23.79;60.89;99362.56;5051132;28;20175;-68
2023/07/24 08:23:57;;;;;;;12.10;7.87;;;;;;;23.79;61.31;99358.88;5050946;28;20175;-67
2023/07/24 08:26:25;;;;;;;10.83;7.30;;;;;;;23.77;61.24;99356.44;5050941;28;20204;-67
2023/07/24 08:28:51;;;;;;;12.63;7.93;;;;;;;23.78;61.13;99343.63;5061399;28;21003;-68
2023/07/24 08:31:17;;;;;;;11.90;7.83;;;;;;;23.79;61.11;99341.59;5070849;28;20437;-68
2023/07/24 08:33:42;;;;;;;12.27;7.03;;;;;;;23.78;61.68;99332.09;5068996;28;20461;-68
2023/07/24 08:36:08;;;;;;;12.00;6.80;;;;;;;23.78;61.72;99325.53;5052634;28;20171;-67
2023/07/24 08:38:34;;;;;;;10.00;6.57;;;;;;;23.78;61.38;99329.22;5068865;28;20264;-68
2023/07/24 08:41:03;;;;;;;13.93;7.97;;;;;;;23.79;61.72;99339.50;5051102;28;20214;-67
2023/07/24 08:43:29;;;;;;;9.80;6.67;;;;;;;23.79;61.57;99339.50;5031836;28;20426;-66
2023/07/24 08:45:54;;;;;;;12.10;7.97;;;;;;;23.80;61.50;99346.09;5060301;28;20459;-66
2023/07/24 08:48:19;;;;;;;12.30;7.20;;;;;;;23.80;61.81;99349.78;5050188;28;20194;-68
2023/07/24 08:50:45;;;;;;;10.57;6.70;;;;;;;23.80;61.95;99355.56;5064965;28;20188;-67
2023/07/24 08:53:10;;;;;;;10.97;7.33;;;;;;;23.79;62.04;99371.19;5053047;28;20195;-68
2023/07/24 08:55:36;;;;;;;20.00;8.50;;;;;;;23.80;62.21;99372.03;5049086;28;20175;-67
2023/07/24 08:58:03;;;;;;;10.20;6.57;;;;;;;23.80;62.12;99369.16;5035566;28;20188;-67
2023/07/24 09:00:29;;;;;;;17.00;7.77;;;;;;;23.80;62.23;99363.38;5014104;28;20164;-67
2023/07/24 09:02:54;;;;;;;11.50;7.03;;;;;;;23.79;62.55;99365.44;5055092;28;20441;-66
2023/07/24 09:05:20;;;;;;;10.20;6.53;;;;;;;23.79;62.34;99379.06;5049382;28;20195;-67
2023/07/24 09:07:45;;;;;;;12.30;8.03;;;;;;;23.79;63.23;99391.38;5031028;28;20185;-67
2023/07/24 09:10:11;;;;;;;10.40;7.07;;;;;;;23.78;63.10;99386.09;5065334;28;20220;-68
2023/07/24 09:12:37;;;;;;;13.97;6.90;;;;;;;23.79;63.29;99384.81;5067929;28;20218;-68
2023/07/24 09:15:06;;;;;;;10.23;6.80;;;;;;;23.79;63.33;99379.06;5053767;28;20179;-68
2023/07/24 09:17:31;;;;;;;11.30;6.93;;;;;;;23.79;63.17;99371.19;5069723;28;20475;-68
2023/07/24 09:19:57;;;;;;;11.63;7.60;;;;;;;23.79;63.65;99361.75;5042059;28;20504;-67
2023/07/24 09:22:23;;;;;;;13.77;7.40;;;;;;;23.78;63.58;99366.69;5029987;28;20156;-68
2023/07/24 09:24:52;;;;;;;12.90;7.10;;;;;;;23.78;63.93;99352.28;5032579;28;20212;-68
2023/07/24 09:27:18;;;;;;;12.73;7.43;;;;;;;23.78;63.46;99346.53;5046667;28;20179;-68
2023/07/24 09:29:43;;;;;;;12.60;7.40;;;;;;;23.77;63.82;99361.38;5022506;28;21057;-67
2023/07/24 09:32:19;;;;;;;11.97;6.90;;;;;;;23.78;64.16;99386.88;5027396;28;20196;-68
2023/07/24 09:34:44;;;;;;;9.73;6.60;;;;;;;23.78;64.15;99381.13;5031656;28;20191;-67
2023/07/24 09:37:10;;;;;;;13.30;7.53;;;;;;;23.77;64.28;99396.78;5028313;28;20419;-67
2023/07/24 09:39:35;;;;;;;10.03;6.53;;;;;;;23.78;63.84;99398.41;5029877;28;20644;-66
2023/07/24 09:42:04;;;;;;;11.10;7.00;;;;;;;23.78;64.00;99381.13;5032479;28;20965;-67
2023/07/24 09:44:31;;;;;;;12.83;7.30;;;;;;;23.78;63.91;99381.13;5026854;28;20918;-67
2023/07/24 09:46:57;;;;;;;16.33;7.30;;;;;;;23.77;64.08;99376.59;5043283;28;20438;-68
2023/07/24 09:49:22;;;;;;;9.70;6.53;;;;;;;23.78;63.87;99381.13;5045912;28;20409;-65
2023/07/24 09:51:48;;;;;;;12.17;7.37;;;;;;;23.79;63.75;99379.06;5043969;28;20911;-67
2023/07/24 09:54:16;;;;;;;12.60;7.57;;;;;;;23.79;63.64;99384.81;5027030;28;20175;-67
2023/07/24 09:56:42;;;;;;;11.10;6.67;;;;;;;23.79;63.74;99388.50;5034675;28;20176;-68
2023/07/24 09:59:07;;;;;;;9.90;6.83;;;;;;;23.80;63.58;99406.63;5025734;28;20418;-67
2023/07/24 10:01:33;;;;;;;11.10;6.87;;;;;;;23.79;63.51;99417.31;5035186;28;20184;-68
2023/07/24 10:03:59;;;;;;;10.37;6.60;;;;;;;23.79;63.28;99419.41;5047512;28;20187;-67
2023/07/24 10:06:24;;;;;;;10.00;6.30;;;;;;;23.79;63.44;99422.28;5030935;28;20426;-67
2023/07/24 10:08:50;;;;;;;11.27;7.10;;;;;;;23.79;63.15;99407.88;5050051;28;20195;-67
2023/07/24 10:11:15;;;;;;;9.80;6.50;;;;;;;23.78;63.62;99406.25;5030322;28;20723;-66
2023/07/24 10:13:41;;;;;;;9.53;6.90;;;;;;;23.77;63.24;99393.91;5030395;28;20191;-67
2023/07/24 10:16:06;;;;;;;9.60;6.00;;;;;;;23.77;63.44;99408.31;5026267;28;20195;-67
2023/07/24 10:18:33;;;;;;;10.20;6.83;;;;;;;23.77;63.34;99396.78;5045893;28;20223;-67
2023/07/24 10:21:06;;;;;;;11.23;6.70;;;;;;;23.77;63.67;99388.13;5068764;28;20578;-67
2023/07/24 10:23:34;;;;;;;11.77;6.93;;;;;;;23.77;63.26;99378.66;5067166;28;20521;-66
2023/07/24 10:26:05;;;;;;;9.23;6.20;;;;;;;23.77;63.35;99365.06;5066530;28;20474;-66
2023/07/24 10:28:33;;;;;;;10.60;7.13;;;;;;;23.77;62.96;99367.13;5034268;28;20453;-68
2023/07/24 10:30:58;;;;;;;8.40;5.70;;;;;;;23.76;63.19;99354.81;5064861;28;20431;-67
2023/07/24 10:33:24;;;;;;;9.10;5.83;;;;;;;23.76;63.09;99354.81;5063386;28;20472;-67
2023/07/24 10:35:54;;;;;;;10.57;6.83;;;;;;;23.76;63.11;99351.09;5051421;28;20184;-66
2023/07/24 10:38:19;;;;;;;11.00;6.37;;;;;;;23.76;62.77;99357.69;5036333;28;20219;-67
2023/07/24 10:40:46;;;;;;;10.80;6.33;;;;;;;23.76;63.10;99354.81;5028746;28;20501;-67
2023/07/24 10:43:12;;;;;;;12.50;6.47;;;;;;;23.77;63.01;99347.78;5049334;28;20726;-67
2023/07/24 10:45:53;;;;;;;9.83;5.93;;;;;;;23.76;62.59;99328.88;5051389;28;20422;-66
2023/07/24 10:48:21;;;;;;;7.83;5.67;;;;;;;23.75;62.36;99306.25;5043139;28;21132;-60
2023/07/24 10:50:47;;;;;;;10.13;6.70;;;;;;;23.74;62.19;99285.22;5062554;28;20426;-60
2023/07/24 10:53:15;;;;;;;10.10;6.60;;;;;;;23.75;62.45;99295.53;5050604;28;20477;-62
2023/07/24 10:55:41;;;;;;;9.90;6.33;;;;;;;23.75;62.30;99289.78;5039597;28;20995;-60
2023/07/24 10:58:07;;;;;;;9.40;6.50;;;;;;;23.76;62.56;99302.91;5042973;28;20441;-61
2023/07/24 11:00:32;;;;;;;11.37;5.60;;;;;;;23.75;62.42;99315.72;5020281;28;20163;-60
2023/07/24 11:02:58;;;;;;;8.97;5.23;;;;;;;23.76;62.28;99313.63;5067870;28;20543;-61
2023/07/24 11:05:24;;;;;;;7.63;5.33;;;;;;;23.76;62.13;99313.63;5051730;28;20199;-60
2023/07/24 11:07:49;;;;;;;9.63;5.37;;;;;;;23.78;62.28;99317.69;5030545;28;20175;-60
2023/07/24 11:10:18;;;;;;;7.77;5.53;;;;;;;23.78;62.24;99314.00;5035648;28;20667;-61
2023/07/24 11:12:44;;;;;;;8.47;5.50;;;;;;;23.78;62.25;99317.69;5030418;28;20192;-61
2023/07/24 11:15:10;;;;;;;8.20;5.33;;;;;;;23.78;62.27;99323.47;5030278;28;20422;-61
2023/07/24 11:17:37;;;;;;;8.07;5.80;;;;;;;23.77;62.05;99339.13;5054128;28;20719;-61
2023/07/24 11:20:10;;;;;;;9.07;5.87;;;;;;;23.76;62.23;99353.97;5025232;28;20844;-60
2023/07/24 11:22:37;;;;;;;10.53;6.20;;;;;;;23.75;62.08;99350.31;5028921;28;20832;-60